ROMMA est une association bénévole à but non lucratif. Votre soutien est indispensable : ADHERER à ROMMA ou FAIRE un DON

Ambérieu-en-Bugey - (01, Ain)

Bugey (255 m)   Longitude: 05° 21' 7"E   Latitude: 45° 58' 24"N Station partenaire n°84
 

Détail journalier du     <<     >>

Température Precipitation Humidité Pression Vent Dir Rafale Dir. rafale
Heure (°C) (mm) (%) (hPa) (km/h) (km/h)
01:00 2.307610192NE11ENE
02:00 1.507810193NE10NE
03:00 1.007910192NE10NE
04:00 0.308010191NE10NE
05:00 -0.508210191NE10NE
06:00 -1.4085101905NE
07:00 -1.408510191NE5NE
08:00 -1.108410202NE8NE
09:00 0.808010192NE11NE
10:00 3.607010193NNE16NE
11:00 6.605610196N21NNO
12:00 7.605410199N24NNE
13:00 8.605010199N27NNE
14:00 9.604910199N26NNE
15:00 10.204710199NNE27NNE
16:00 10.3046101910NNE27NNE
17:00 10.5047101810N29N
18:00 10.2047101911NNE27N
19:00 9.704810199NNE29N
20:00 8.205110207NNE26NE
21:00 6.705610204NNE19NNE
22:00 5.006310211NNE11NNE
23:00 3.8069102105NNE
minuit 1.6077102106NNE

Graphique du 14-04-2019

 

Serveur OMMA